Flight Track Log - Related Links

Times and Time Zones

All times are in EDT time to prevent confusion due to time zone crossing. See the N1250V flight status page for this flight to view local times or setup timezone preferences in your user account.

Time Position Orientation Groundspeed Altitude Reporting Facility
EDT Latitude Longitude Course Direction KTS MPH feet Rate Location/Type
Fri 10:27:49 AM 39.9333 -105.1333 247° West 158 182 7,100  Level Denver TRACON
Fri 10:28:50 AM 39.9833 -105.1333 360° North 194 223 8,800 1,700 Climbing Denver TRACON
Fri 10:29:49 AM 40.0333 -105.1667 333° Northwest 206 237 10,500 1,615 Climbing Denver TRACON
Fri 10:30:08 AM 40.0236 -105.1850 235° Southwest 203 234 10,900 1,926 Climbing Denver Center
Fri 10:31:10 AM 39.9814 -105.2431 227° Southwest 205 236 13,100 2,081 Climbing Denver Center
Fri 10:32:12 AM 39.9433 -105.3003 229° Southwest 207 238 15,200 1,984 Climbing Denver Center
Fri 10:33:00 AM 39.7328 -105.5516 247° West  Level FlightAware Approximate
Fri 10:33:14 AM 39.9053 -105.3581 229° Southwest 198 228 17,200  Level Denver Center
Fri 10:34:16 AM 39.8642 -105.4197 229° Southwest 221 254 18,000 823 Climbing Denver Center
Fri 10:35:18 AM 39.8131 -105.4975 229° Southwest 262 302 18,900 484 Climbing Denver Center
Fri 10:36:20 AM 39.7908 -105.5886 252° West 267 307 19,000 48 Climbing Denver Center
Fri 10:37:22 AM 39.7647 -105.6889 251° West 292 336 19,000  Level Denver Center
Fri 10:38:24 AM 39.7364 -105.7983 251° West 299 344 19,000  Level Denver Center
Fri 10:39:26 AM 39.7114 -105.8942 251° West 297 342 19,000  Level Denver Center
Fri 10:40:28 AM 39.6822 -105.9975 250° West 301 346 19,000  Level Denver Center
Fri 10:41:30 AM 39.6553 -106.0994 251° West 299 344 19,000  Level Denver Center
Fri 10:42:32 AM 39.6283 -106.2042 252° West 304 350 19,000  Level Denver Center
Fri 10:43:34 AM 39.5956 -106.3253 251° West 297 342 19,000  Level Denver Center
Fri 10:44:36 AM 39.5722 -106.4100 250° West 255 293 19,000  Level Denver Center
Fri 10:45:38 AM 39.5481 -106.4989 251° West 260 299 19,000  Level Denver Center
Fri 10:46:40 AM 39.5200 -106.6008 250° West 271 312 19,000 -290 Level Denver Center
Fri 10:47:42 AM 39.4992 -106.6769 250° West 232 267 18,400 -1,065 Descending Denver Center
Fri 10:48:44 AM 39.4778 -106.7547 250° West 206 237 16,800 -1,984 Descending Denver Center
Fri 10:49:46 AM 39.4614 -106.8150 251° West 189 217 14,300 -1,935 Descending Denver Center
Fri 10:50:48 AM 39.4417 -106.8844 250° West 185 213 12,800 -823 Descending Denver Center
Fri 10:51:50 AM 39.4139 -106.9425 238° Southwest 200 230 12,600 -629 Descending Denver Center
Fri 10:52:52 AM 39.3700 -106.9392 177° South 170 196 11,500 -1,016 Descending Denver Center
Fri 10:53:54 AM 39.3306 -106.9197 159° South 158 182 10,500 -1,258 Descending Denver Center
Fri 10:54:56 AM 39.2933 -106.9025 160° South 150 173 8,900 -968 Descending Denver Center
Fri 10:55:58 AM 39.2594 -106.8864 160° South 146 168 8,500 -387 Descending Denver Center
Fri 10:57:00 AM 39.2167 -106.8667 176° South  Level FlightAware Approximate

Login

Don't have an account? Register now (free) for customized features, flight alerts, and more!